Time;durP1;ratioP1;P1;durP2;ratioP2;P2;SDS_P1;SDS_P2;PMS_P1;PMS_P2;Temp;Humidity;BMP_temperature;BMP_pressure;BME280_temperature;BME280_humidity;BME280_pressure;Samples;Min_cycle;Max_cycle;Signal;HPM_P1;HPM_P2
2023/09/27 00:00:13;;;;;;;21.10;15.85;;;22.10;99.90;;;;;;4916639;29;20032;-91
2023/09/27 00:02:43;;;;;;;19.30;14.73;;;22.00;99.90;;;;;;4901197;29;20064;-92
2023/09/27 00:05:11;;;;;;;26.92;15.93;;;22.00;99.90;;;;;;4917040;29;20035;-92
2023/09/27 00:07:38;;;;;;;23.48;15.88;;;21.90;99.90;;;;;;4901380;29;20063;-92
2023/09/27 00:10:06;;;;;;;16.20;14.00;;;21.90;99.90;;;;;;4901086;29;20059;-91
2023/09/27 00:12:33;;;;;;;18.80;14.82;;;21.80;99.90;;;;;;4901153;29;20028;-92
2023/09/27 00:15:02;;;;;;;17.80;13.93;;;21.90;99.90;;;;;;4917121;29;20508;-92
2023/09/27 00:17:29;;;;;;;20.85;13.88;;;21.90;99.90;;;;;;4901009;29;20090;-91
2023/09/27 00:19:55;;;;;;;29.60;15.10;;;21.90;99.90;;;;;;4916922;29;20032;-90
2023/09/27 00:22:22;;;;;;;19.42;13.75;;;22.00;99.90;;;;;;4900988;29;20389;-90
2023/09/27 00:24:53;;;;;;;25.67;13.05;;;22.00;99.90;;;;;;4916902;29;20100;-91
2023/09/27 00:27:20;;;;;;;25.30;13.95;;;22.00;99.90;;;;;;4901347;29;20032;-92
2023/09/27 00:29:46;;;;;;;21.50;13.80;;;22.00;99.90;;;;;;4916746;29;20115;-90
2023/09/27 00:32:12;;;;;;;25.35;13.63;;;22.00;99.90;;;;;;4900984;29;20105;-92
2023/09/27 00:34:39;;;;;;;23.77;13.95;;;22.00;99.90;;;;;;4916817;29;20032;-91
2023/09/27 00:37:05;;;;;;;19.60;13.30;;;22.00;99.90;;;;;;4901160;29;20040;-92
2023/09/27 00:39:36;;;;;;;21.67;13.40;;;22.10;99.90;;;;;;4900896;29;20493;-92
2023/09/27 00:42:04;;;;;;;32.40;14.40;;;22.10;99.90;;;;;;4916686;29;20055;-91
2023/09/27 00:44:30;;;;;;;25.85;13.70;;;22.10;99.90;;;;;;4900603;29;20052;-90
2023/09/27 00:46:58;;;;;;;20.48;12.80;;;22.10;99.90;;;;;;4900837;29;20394;-91
2023/09/27 00:49:25;;;;;;;22.83;13.57;;;22.10;99.90;;;;;;4900864;29;20032;-92
2023/09/27 00:51:51;;;;;;;21.00;12.95;;;22.10;99.90;;;;;;4916604;29;20035;-92
2023/09/27 00:54:20;;;;;;;18.83;12.98;;;22.10;99.90;;;;;;4900989;29;20036;-91
2023/09/27 00:56:47;;;;;;;23.45;13.27;;;22.10;99.90;;;;;;4900911;29;20039;-93
2023/09/27 00:59:18;;;;;;;27.40;14.40;;;22.10;99.90;;;;;;4900873;29;20075;-91
2023/09/27 01:01:46;;;;;;;17.15;13.40;;;22.00;99.90;;;;;;4916571;29;20398;-92
2023/09/27 01:04:13;;;;;;;16.88;12.77;;;22.00;99.90;;;;;;4900814;29;20036;-92
2023/09/27 01:06:43;;;;;;;25.05;13.48;;;21.90;99.90;;;;;;4900946;29;20028;-90
2023/09/27 01:09:13;;;;;;;22.13;12.73;;;21.90;99.90;;;;;;4916667;29;20034;-92
2023/09/27 01:11:40;;;;;;;20.50;14.07;;;21.80;99.90;;;;;;4906467;29;20024;-91
2023/09/27 01:14:06;;;;;;;20.50;13.07;;;21.80;99.90;;;;;;4902390;29;20317;-91
2023/09/27 01:16:33;;;;;;;21.10;12.88;;;21.80;99.90;;;;;;4897603;29;20029;-92
2023/09/27 01:19:03;;;;;;;24.30;14.70;;;21.80;99.90;;;;;;4882103;29;20047;-91
2023/09/27 01:21:31;;;;;;;22.80;13.35;;;21.80;99.90;;;;;;4882240;29;20029;-91
2023/09/27 01:23:58;;;;;;;28.40;13.57;;;21.90;99.90;;;;;;4882015;29;20063;-91
2023/09/27 01:26:26;;;;;;;19.73;13.35;;;21.90;99.90;;;;;;4882210;29;20032;-91
2023/09/27 01:28:53;;;;;;;18.48;13.35;;;21.90;99.90;;;;;;4882054;29;20123;-92
2023/09/27 01:31:19;;;;;;;16.20;13.55;;;21.80;99.90;;;;;;4882139;29;20037;-92
2023/09/27 01:33:46;;;;;;;21.88;13.70;;;21.80;99.90;;;;;;4882177;29;20021;-92
2023/09/27 01:36:12;;;;;;;21.00;13.95;;;21.70;99.90;;;;;;4881938;29;20412;-93
2023/09/27 01:38:38;;;;;;;22.45;14.10;;;21.60;99.90;;;;;;4881827;29;20037;-91
2023/09/27 01:41:05;;;;;;;19.35;14.98;;;21.60;99.90;;;;;;4881744;29;20065;-91
2023/09/27 01:43:32;;;;;;;21.58;14.75;;;21.50;99.90;;;;;;4881561;29;20049;-92
2023/09/27 01:45:58;;;;;;;26.88;13.95;;;21.50;99.90;;;;;;4881848;29;20029;-93
2023/09/27 01:48:24;;;;;;;23.08;13.90;;;21.40;99.90;;;;;;4883529;29;20040;-90
2023/09/27 01:50:51;;;;;;;23.35;14.20;;;21.40;99.90;;;;;;4884990;29;20037;-92
2023/09/27 01:53:19;;;;;;;16.45;13.05;;;21.40;99.90;;;;;;4885201;29;20033;-91
2023/09/27 01:55:47;;;;;;;22.05;13.75;;;21.30;99.90;;;;;;4900237;29;20028;-90
2023/09/27 01:58:13;;;;;;;20.05;14.00;;;21.30;99.90;;;;;;4884582;29;20036;-90
2023/09/27 02:00:40;;;;;;;28.40;14.77;;;21.20;99.90;;;;;;4900237;29;20029;-91
2023/09/27 02:03:06;;;;;;;23.25;13.63;;;21.20;99.90;;;;;;4884636;29;20024;-92
2023/09/27 02:05:35;;;;;;;20.52;14.25;;;21.10;99.90;;;;;;4900063;29;20036;-92
2023/09/27 02:08:02;;;;;;;28.90;14.93;;;21.10;99.90;;;;;;4884484;29;20044;-91
2023/09/27 02:10:28;;;;;;;20.33;14.40;;;21.00;99.90;;;;;;4900056;29;20486;-92
2023/09/27 02:12:55;;;;;;;21.23;14.35;;;21.10;99.90;;;;;;4884646;29;20056;-90
2023/09/27 02:15:21;;;;;;;26.63;14.52;;;21.00;99.90;;;;;;4900278;29;20079;-91
2023/09/27 02:17:48;;;;;;;25.13;14.70;;;21.00;99.90;;;;;;4884307;29;20123;-92
2023/09/27 02:20:20;;;;;;;25.00;13.88;;;21.00;99.90;;;;;;4884075;29;20060;-91
2023/09/27 02:22:50;;;;;;;26.17;14.75;;;20.90;99.90;;;;;;4883738;29;20036;-91
2023/09/27 02:25:16;;;;;;;20.73;13.93;;;20.90;99.90;;;;;;4884289;29;20028;-92
2023/09/27 02:27:43;;;;;;;25.13;14.50;;;20.90;99.90;;;;;;4884240;29;20040;-91
2023/09/27 02:30:17;;;;;;;24.27;14.10;;;20.80;99.90;;;;;;4884443;29;20382;-91
2023/09/27 02:32:45;;;;;;;21.90;14.23;;;20.80;99.90;;;;;;4884010;29;20430;-92
2023/09/27 02:35:19;;;;;;;18.42;13.60;;;20.80;99.90;;;;;;4883892;29;20032;-93
2023/09/27 02:37:47;;;;;;;26.10;13.80;;;20.80;99.90;;;;;;4899618;29;20033;-92
2023/09/27 02:40:14;;;;;;;26.67;13.35;;;20.80;99.90;;;;;;4884063;29;20028;-90
2023/09/27 02:42:44;;;;;;;24.20;13.35;;;20.70;99.90;;;;;;4913033;29;20071;-92
2023/09/27 02:45:12;;;;;;;23.02;12.60;;;20.70;99.90;;;;;;4918101;29;20056;-91
2023/09/27 02:47:43;;;;;;;32.60;13.30;;;20.70;99.90;;;;;;4902571;29;20083;-91
2023/09/27 02:50:10;;;;;;;25.88;13.48;;;20.70;99.90;;;;;;4918511;29;20035;-92
2023/09/27 02:52:41;;;;;;;18.20;13.13;;;20.70;99.90;;;;;;4902490;29;20024;-93
2023/09/27 02:55:08;;;;;;;23.77;13.23;;;20.60;99.90;;;;;;4918187;29;20068;-93
2023/09/27 02:57:35;;;;;;;19.90;13.52;;;20.60;99.90;;;;;;4902424;29;20557;-91
2023/09/27 03:00:03;;;;;;;21.65;14.10;;;20.50;99.90;;;;;;4918148;29;20058;-91
2023/09/27 03:02:33;;;;;;;22.75;13.27;;;20.40;99.90;;;;;;4902894;29;20127;-92
2023/09/27 03:04:59;;;;;;;21.27;12.85;;;20.50;99.90;;;;;;4893674;29;20029;-90
2023/09/27 03:07:26;;;;;;;20.98;13.05;;;20.40;99.90;;;;;;4885770;29;20435;-92
2023/09/27 03:09:52;;;;;;;22.50;14.10;;;20.40;99.90;;;;;;4880908;29;20040;-92
2023/09/27 03:12:22;;;;;;;20.65;13.85;;;20.40;99.90;;;;;;4880571;29;20053;-90
2023/09/27 03:14:49;;;;;;;23.08;14.13;;;20.30;99.90;;;;;;4895937;29;20043;-88
2023/09/27 03:17:15;;;;;;;21.50;13.80;;;20.30;99.90;;;;;;4901852;29;20059;-89
2023/09/27 03:19:42;;;;;;;21.52;14.60;;;20.10;99.90;;;;;;4918007;29;20036;-88
2023/09/27 03:22:10;;;;;;;24.92;14.70;;;20.10;99.90;;;;;;4902044;29;20051;-88
2023/09/27 03:24:37;;;;;;;21.38;12.88;;;20.00;99.90;;;;;;4908493;29;20051;-88
2023/09/27 03:27:04;;;;;;;26.42;13.57;;;20.10;99.90;;;;;;4882702;29;20032;-87
2023/09/27 03:29:32;;;;;;;21.20;12.75;;;20.00;99.90;;;;;;4898166;29;20029;-89
2023/09/27 03:32:00;;;;;;;19.92;12.50;;;20.00;99.90;;;;;;4883072;29;20032;-87
2023/09/27 03:34:26;;;;;;;22.50;13.00;;;20.00;99.90;;;;;;4897333;29;20039;-88
2023/09/27 03:36:56;;;;;;;19.27;12.70;;;20.00;99.90;;;;;;4882618;29;20035;-87
2023/09/27 03:39:22;;;;;;;29.63;12.55;;;20.00;99.90;;;;;;4898037;29;20402;-88
2023/09/27 03:41:52;;;;;;;23.73;13.48;;;20.00;99.90;;;;;;4882633;29;20025;-87
2023/09/27 03:44:19;;;;;;;25.05;13.80;;;20.00;99.90;;;;;;4897715;29;20046;-88
2023/09/27 03:46:45;;;;;;;19.05;13.13;;;20.00;99.90;;;;;;4882802;29;20033;-86
2023/09/27 03:49:12;;;;;;;19.83;12.52;;;20.00;99.90;;;;;;4882331;29;20029;-87
2023/09/27 03:51:39;;;;;;;18.27;12.30;;;19.90;99.90;;;;;;4882491;29;20128;-87
2023/09/27 03:54:05;;;;;;;21.50;13.48;;;19.90;99.90;;;;;;4882407;29;20381;-87
2023/09/27 03:56:32;;;;;;;18.15;12.07;;;20.00;99.90;;;;;;4882265;29;20037;-89
2023/09/27 03:58:58;;;;;;;23.77;13.18;;;19.90;99.90;;;;;;4882603;29;20048;-88
2023/09/27 04:01:27;;;;;;;24.98;13.55;;;19.90;99.90;;;;;;4883493;29;20076;-93
2023/09/27 04:03:54;;;;;;;23.92;12.93;;;20.00;99.90;;;;;;4882896;29;20040;-90
2023/09/27 04:06:20;;;;;;;27.55;13.98;;;20.10;99.90;;;;;;4882252;29;20020;-90
2023/09/27 04:08:47;;;;;;;26.50;14.70;;;20.00;99.90;;;;;;4898125;29;20029;-90
2023/09/27 04:11:13;;;;;;;26.88;12.85;;;20.00;99.90;;;;;;4882436;29;20481;-90
2023/09/27 04:13:40;;;;;;;25.40;13.25;;;19.90;99.90;;;;;;4898542;29;20402;-91
2023/09/27 04:16:06;;;;;;;22.30;12.90;;;19.90;99.90;;;;;;4917880;29;20394;-90
2023/09/27 04:18:32;;;;;;;18.98;13.13;;;19.80;99.90;;;;;;4916841;29;20055;-92
2023/09/27 04:21:08;;;;;;;22.25;13.07;;;19.80;99.90;;;;;;4917598;29;20024;-91
2023/09/27 04:23:36;;;;;;;20.38;13.45;;;19.80;99.90;;;;;;4916805;29;20036;-90
2023/09/27 04:26:06;;;;;;;29.42;13.75;;;19.80;99.90;;;;;;4902139;29;20107;-90
2023/09/27 04:28:33;;;;;;;27.48;12.73;;;19.80;99.90;;;;;;4901126;29;20031;-90
2023/09/27 04:31:00;;;;;;;30.67;14.20;;;19.80;99.90;;;;;;4902040;29;20025;-90
2023/09/27 04:33:26;;;;;;;21.30;13.10;;;19.80;99.90;;;;;;4917182;29;20583;-91
2023/09/27 04:35:53;;;;;;;27.00;13.05;;;19.80;99.90;;;;;;4901839;29;20040;-90
2023/09/27 04:38:19;;;;;;;28.80;14.60;;;19.80;99.90;;;;;;4917355;29;20549;-91
2023/09/27 04:40:46;;;;;;;26.38;13.35;;;19.80;99.90;;;;;;4901483;29;20032;-90
2023/09/27 04:43:12;;;;;;;22.92;13.57;;;19.80;99.90;;;;;;4901422;29;20071;-90
2023/09/27 04:45:39;;;;;;;20.48;13.55;;;19.90;99.90;;;;;;4902449;29;20052;-90
2023/09/27 04:48:06;;;;;;;20.80;14.65;;;19.90;99.90;;;;;;4911567;29;20075;-90
2023/09/27 04:50:33;;;;;;;21.88;14.63;;;20.00;99.90;;;;;;4886202;29;20028;-90
2023/09/27 04:53:00;;;;;;;25.05;14.10;;;20.00;99.90;;;;;;4886415;29;20482;-90
2023/09/27 04:55:27;;;;;;;28.63;14.90;;;20.00;99.90;;;;;;4887467;29;20447;-90
2023/09/27 04:57:54;;;;;;;28.63;13.73;;;20.10;99.90;;;;;;4891265;29;20052;-92
2023/09/27 05:00:22;;;;;;;29.35;14.38;;;20.10;99.90;;;;;;4886867;29;20025;-92
2023/09/27 05:02:51;;;;;;;27.00;14.63;;;20.20;99.90;;;;;;4886081;29;20092;-90
2023/09/27 05:05:19;;;;;;;19.75;15.00;;;20.30;99.90;;;;;;4886268;29;20024;-91
2023/09/27 05:07:46;;;;;;;25.05;14.02;;;20.40;99.90;;;;;;4886044;29;20561;-90
2023/09/27 05:10:12;;;;;;;25.38;14.40;;;20.60;99.90;;;;;;4885777;29;20036;-90
2023/09/27 05:12:39;;;;;;;22.38;14.15;;;20.60;99.90;;;;;;4885740;29;20402;-90
2023/09/27 05:15:09;;;;;;;26.73;14.35;;;20.70;99.90;;;;;;4885574;29;20024;-91
2023/09/27 05:17:35;;;;;;;22.83;14.43;;;20.80;99.90;;;;;;4919193;29;20039;-91
2023/09/27 05:20:09;;;;;;;24.92;14.50;;;21.00;99.90;;;;;;4904062;29;20036;-91
2023/09/27 05:22:36;;;;;;;;;;;21.10;99.90;;;;;;4918993;29;20095;-83
2023/09/27 05:25:03;;;;;;;25.65;15.15;;;21.30;99.90;;;;;;4900431;29;19917;-83
2023/09/27 05:27:31;;;;;;;24.52;16.38;;;21.40;99.90;;;;;;4900357;29;20043;-82
2023/09/27 05:29:57;;;;;;;29.83;16.73;;;21.50;99.90;;;;;;4900488;29;20024;-83
2023/09/27 05:32:24;;;;;;;21.65;16.33;;;21.60;99.90;;;;;;4900692;29;20039;-82
2023/09/27 05:34:53;;;;;;;27.50;17.40;;;21.70;99.90;;;;;;4909034;29;20100;-82
2023/09/27 05:37:20;;;;;;;21.02;17.63;;;22.00;99.90;;;;;;4918298;29;20095;-82
2023/09/27 05:39:49;;;;;;;21.92;17.77;;;22.30;99.90;;;;;;4918276;29;20059;-82
2023/09/27 05:42:16;;;;;;;31.90;18.25;;;22.50;99.90;;;;;;4919402;29;20032;-83
2023/09/27 05:44:42;;;;;;;25.45;19.23;;;22.70;99.90;;;;;;4918942;29;20143;-83
2023/09/27 05:47:09;;;;;;;30.73;18.92;;;22.90;99.90;;;;;;4918027;29;20032;-83
2023/09/27 05:49:36;;;;;;;25.42;19.02;;;23.20;99.90;;;;;;4917908;29;20029;-82
2023/09/27 05:52:03;;;;;;;27.20;19.88;;;23.60;99.90;;;;;;4919171;29;20055;-83
2023/09/27 05:54:31;;;;;;;28.73;19.58;;;23.90;99.90;;;;;;4899946;29;20020;-83
2023/09/27 05:57:00;;;;;;;32.83;19.55;;;23.70;99.90;;;;;;4899735;29;20032;-83
2023/09/27 05:59:27;;;;;;;24.42;19.15;;;23.80;99.90;;;;;;4898602;29;20067;-84
2023/09/27 06:01:53;;;;;;;28.45;20.17;;;24.20;99.90;;;;;;4900184;29;20490;-84
2023/09/27 06:04:20;;;;;;;26.45;20.35;;;24.40;99.90;;;;;;4902840;29;20543;-83
2023/09/27 06:06:48;;;;;;;33.58;21.70;;;24.80;99.90;;;;;;4918948;29;20024;-83
2023/09/27 06:09:16;;;;;;;25.60;21.23;;;25.20;99.90;;;;;;4917838;29;20032;-84
2023/09/27 06:11:45;;;;;;;30.58;22.27;;;25.50;99.90;;;;;;4918880;29;20193;-83
2023/09/27 06:14:18;;;;;;;32.17;23.25;;;25.80;99.90;;;;;;4915628;29;20304;-83
2023/09/27 06:16:45;;;;;;;30.38;21.90;;;26.10;99.90;;;;;;4898636;29;20033;-83
2023/09/27 06:19:11;;;;;;;27.77;22.15;;;26.30;99.90;;;;;;4893030;29;20036;-81
2023/09/27 06:21:39;;;;;;;25.10;22.40;;;26.40;99.90;;;;;;4918638;29;20112;-81
2023/09/27 06:24:06;;;;;;;32.47;22.60;;;26.30;99.90;;;;;;4916466;29;20068;-81
2023/09/27 06:26:35;;;;;;;28.27;21.67;;;26.10;99.90;;;;;;4898555;29;20043;-82
2023/09/27 06:29:01;;;;;;;27.98;22.75;;;26.10;99.90;;;;;;4898515;29;20044;-82
2023/09/27 06:31:29;;;;;;;27.60;21.33;;;26.20;99.90;;;;;;4898428;29;20512;-82
2023/09/27 06:33:55;;;;;;;27.67;20.45;;;26.60;99.90;;;;;;4898724;29;20493;-82
2023/09/27 06:36:22;;;;;;;24.98;19.52;;;26.70;99.90;;;;;;4918491;29;20032;-82
2023/09/27 06:38:49;;;;;;;26.50;20.52;;;26.70;99.90;;;;;;4917188;29;20032;-83
2023/09/27 06:41:16;;;;;;;25.88;20.95;;;26.60;99.90;;;;;;4901300;29;20043;-82
2023/09/27 06:43:43;;;;;;;23.83;21.70;;;26.40;99.90;;;;;;4918054;29;20071;-82
2023/09/27 06:46:10;;;;;;;27.23;21.05;;;26.20;99.90;;;;;;4913670;29;20029;-82
2023/09/27 06:48:37;;;;;;;30.05;23.40;;;26.50;99.90;;;;;;4898154;29;20107;-82
2023/09/27 06:51:11;;;;;;;29.05;22.83;;;26.60;99.90;;;;;;4899410;29;20020;-80
2023/09/27 06:53:38;;;;;;;;;;;27.20;99.90;;;;;;4898338;29;20037;-80
2023/09/27 06:56:05;;;;;;;29.58;24.40;;;27.40;99.90;;;;;;4916725;29;19958;-79
2023/09/27 06:58:32;;;;;;;36.10;25.25;;;27.20;99.90;;;;;;4916622;29;20044;-81
2023/09/27 07:00:58;;;;;;;31.73;23.65;;;26.90;99.90;;;;;;4901006;29;20104;-81
2023/09/27 07:03:27;;;;;;;27.33;24.42;;;27.00;99.90;;;;;;4917857;29;20055;-81
2023/09/27 07:05:54;;;;;;;29.00;25.00;;;27.20;99.90;;;;;;4897706;29;20112;-81
2023/09/27 07:08:21;;;;;;;27.73;24.63;;;27.20;99.90;;;;;;4897605;29;20050;-81
2023/09/27 07:10:50;;;;;;;28.25;24.98;;;27.00;99.90;;;;;;4897628;29;20108;-81
2023/09/27 07:13:22;;;;;;;28.75;25.52;;;26.90;99.90;;;;;;4898872;29;20387;-81
2023/09/27 07:15:49;;;;;;;28.38;25.55;;;27.20;99.90;;;;;;4913539;29;20031;-81
2023/09/27 07:18:18;;;;;;;28.63;25.98;;;27.50;99.90;;;;;;4914558;29;20060;-82
2023/09/27 07:20:52;;;;;;;29.83;26.83;;;27.40;99.90;;;;;;4917026;29;20207;-82
2023/09/27 07:23:23;;;;;;;29.23;26.40;;;27.20;99.90;;;;;;4917537;29;20067;-82
2023/09/27 07:25:53;;;;;;;29.20;26.38;;;27.00;99.90;;;;;;4902894;29;20139;-81
2023/09/27 07:28:21;;;;;;;31.88;26.88;;;27.10;99.90;;;;;;4897563;29;20041;-82
2023/09/27 07:30:47;;;;;;;30.08;27.17;;;27.40;99.90;;;;;;4898562;29;20029;-82
2023/09/27 07:33:17;;;;;;;30.23;27.40;;;27.40;99.90;;;;;;4898509;29;20029;-82
2023/09/27 07:35:45;;;;;;;31.73;28.35;;;27.50;99.90;;;;;;4911001;29;20032;-82
2023/09/27 07:38:12;;;;;;;30.83;27.95;;;27.60;99.90;;;;;;4916225;29;20036;-82
2023/09/27 07:40:47;;;;;;;30.77;27.88;;;27.90;99.90;;;;;;4917478;29;20036;-82
2023/09/27 07:52:25;;;;;;;32.15;28.85;;;28.70;99.90;;;;;;5769147;23;20544;-85
2023/09/27 07:54:52;;;;;;;31.23;28.33;;;28.60;99.90;;;;;;4917496;29;20051;-87
2023/09/27 07:57:20;;;;;;;31.58;28.58;;;28.90;99.90;;;;;;4900332;29;20032;-86
2023/09/27 07:59:47;;;;;;;31.15;28.75;;;28.90;99.90;;;;;;4916106;29;20028;-85
2023/09/27 08:02:17;;;;;;;31.45;28.80;;;29.10;99.90;;;;;;4916382;29;20450;-85
2023/09/27 08:04:45;;;;;;;32.63;29.42;;;29.20;99.90;;;;;;4900714;29;20039;-85
2023/09/27 08:07:13;;;;;;;31.23;28.63;;;28.90;99.90;;;;;;4900278;29;20075;-84
2023/09/27 08:09:42;;;;;;;30.67;28.38;;;29.10;99.90;;;;;;4916113;29;20040;-85
2023/09/27 08:12:08;;;;;;;31.15;28.80;;;28.80;99.90;;;;;;4916015;29;20025;-85
2023/09/27 08:14:38;;;;;;;31.25;28.65;;;28.90;99.90;;;;;;4916043;29;20027;-85
2023/09/27 08:17:04;;;;;;;32.85;28.67;;;28.80;99.90;;;;;;4915999;29;20051;-85
2023/09/27 08:19:32;;;;;;;31.25;28.73;;;28.50;99.90;;;;;;4915984;29;20043;-86
2023/09/27 08:21:58;;;;;;;30.67;28.13;;;28.90;99.90;;;;;;4899555;29;20024;-85
2023/09/27 08:24:25;;;;;;;33.42;30.10;;;29.10;99.90;;;;;;4900132;29;20532;-85
2023/09/27 08:26:51;;;;;;;32.15;29.48;;;29.20;99.90;;;;;;4900221;29;20032;-85
2023/09/27 08:29:20;;;;;;;32.13;29.38;;;28.90;99.90;;;;;;4900342;29;20032;-84
2023/09/27 08:31:46;;;;;;;32.63;29.83;;;28.30;99.90;;;;;;4900324;29;20485;-86
2023/09/27 08:34:13;;;;;;;32.35;29.60;;;28.30;99.90;;;;;;4915705;29;20107;-85
2023/09/27 08:36:40;;;;;;;33.30;30.52;;;28.40;99.90;;;;;;4900143;29;20511;-86
2023/09/27 08:39:09;;;;;;;32.25;28.92;;;28.60;99.90;;;;;;4900091;29;20493;-86
2023/09/27 08:41:38;;;;;;;32.13;29.23;;;28.90;99.90;;;;;;4915847;29;20108;-86
2023/09/27 08:44:09;;;;;;;31.23;28.70;;;28.90;99.90;;;;;;4915774;29;20040;-86
2023/09/27 08:46:40;;;;;;;31.13;28.13;;;28.70;99.90;;;;;;4917213;29;20108;-86
2023/09/27 08:49:12;;;;;;;31.00;28.30;;;28.70;99.90;;;;;;4900471;29;20036;-86
2023/09/27 08:51:42;;;;;;;31.45;28.60;;;28.60;99.90;;;;;;4915584;29;20125;-86
2023/09/27 08:54:10;;;;;;;31.95;28.85;;;28.70;99.90;;;;;;4915497;29;20052;-85
2023/09/27 08:56:37;;;;;;;32.00;29.08;;;28.70;99.90;;;;;;4900077;29;20060;-86
2023/09/27 08:59:05;;;;;;;32.47;29.35;;;28.80;99.90;;;;;;4900278;29;20040;-86
2023/09/27 09:01:34;;;;;;;32.58;29.67;;;28.50;99.90;;;;;;4900295;29;20028;-86
2023/09/27 09:04:06;;;;;;;31.85;29.25;;;28.60;99.90;;;;;;4915900;29;20054;-86
2023/09/27 09:06:36;;;;;;;32.90;29.90;;;28.50;99.90;;;;;;4899954;29;20116;-86
2023/09/27 09:09:14;;;;;;;32.67;29.98;;;28.70;99.90;;;;;;4915474;29;20107;-86
2023/09/27 09:11:57;;;;;;;33.70;30.73;;;29.00;99.90;;;;;;4902723;29;20036;-85
2023/09/27 09:14:54;;;;;;;33.17;30.42;;;28.80;99.90;;;;;;4900629;29;20123;-86
2023/09/27 09:17:59;;;;;;;32.97;30.15;;;28.50;99.90;;;;;;4900108;29;20501;-86
2023/09/27 09:20:32;;;;;;;32.58;29.95;;;28.40;99.90;;;;;;4900586;29;20036;-85
2023/09/27 09:23:12;;;;;;;32.92;30.10;;;28.90;99.90;;;;;;4899993;29;20394;-85
2023/09/27 09:25:47;;;;;;;32.13;29.83;;;28.90;99.90;;;;;;4899735;29;20032;-85
2023/09/27 09:28:18;;;;;;;33.10;30.30;;;28.80;99.90;;;;;;4900352;29;20035;-86
2023/09/27 09:30:52;;;;;;;33.50;30.27;;;28.70;99.90;;;;;;4899850;29;20032;-85
2023/09/27 09:33:28;;;;;;;32.67;29.83;;;28.80;99.90;;;;;;4902694;29;20482;-86
2023/09/27 09:35:58;;;;;;;33.83;30.40;;;28.60;99.90;;;;;;4915576;29;20041;-86
2023/09/27 09:38:30;;;;;;;32.97;30.07;;;28.60;99.90;;;;;;4915265;29;20081;-85
2023/09/27 09:41:03;;;;;;;34.00;31.35;;;28.50;99.90;;;;;;4915802;29;20041;-86
2023/09/27 09:43:35;;;;;;;34.63;31.63;;;28.70;99.90;;;;;;4918428;29;20032;-86
2023/09/27 09:46:06;;;;;;;34.13;31.55;;;28.60;99.90;;;;;;4903244;29;20025;-87
2023/09/27 09:48:38;;;;;;;35.65;32.28;;;28.80;99.90;;;;;;4919032;29;20099;-85
2023/09/27 09:51:06;;;;;;;34.92;32.22;;;29.00;99.90;;;;;;4903256;29;20115;-85
2023/09/27 09:53:38;;;;;;;34.83;32.20;;;29.00;99.90;;;;;;4902958;29;20604;-86
2023/09/27 09:56:11;;;;;;;34.53;31.70;;;28.70;99.90;;;;;;4903658;29;20091;-86
2023/09/27 09:58:55;;;;;;;34.70;31.83;;;28.60;99.90;;;;;;4903262;29;20128;-86
2023/09/27 10:01:31;;;;;;;34.75;32.15;;;28.60;99.90;;;;;;4903604;29;20516;-84
2023/09/27 10:04:03;;;;;;;35.65;32.67;;;28.50;99.90;;;;;;4918322;29;20127;-86
2023/09/27 10:06:33;;;;;;;36.13;32.88;;;28.70;99.90;;;;;;4921541;29;20032;-87
2023/09/27 10:09:01;;;;;;;35.40;32.67;;;28.60;99.90;;;;;;4919110;29;20035;-86
2023/09/27 10:11:29;;;;;;;36.45;33.45;;;28.70;99.90;;;;;;4918947;29;20036;-86
2023/09/27 10:13:59;;;;;;;34.90;31.98;;;28.70;99.90;;;;;;4903513;29;20020;-85
2023/09/27 10:16:26;;;;;;;35.65;32.58;;;28.60;99.90;;;;;;4919043;29;20116;-86
2023/09/27 10:18:55;;;;;;;35.63;32.53;;;28.50;99.90;;;;;;4903304;29;20099;-86
2023/09/27 10:21:21;;;;;;;36.88;33.47;;;28.70;99.90;;;;;;4919635;29;20028;-86
2023/09/27 10:24:00;;;;;;;36.35;33.33;;;28.70;99.90;;;;;;4903725;29;20028;-85
2023/09/27 10:26:32;;;;;;;37.10;34.10;;;28.80;99.90;;;;;;4905706;29;20047;-87
2023/09/27 10:29:13;;;;;;;36.65;33.75;;;28.90;99.90;;;;;;4903399;29;20028;-86
2023/09/27 10:31:57;;;;;;;36.80;33.55;;;28.80;99.90;;;;;;4903108;29;20082;-85
2023/09/27 10:34:30;;;;;;;35.90;33.08;;;28.70;99.90;;;;;;4913719;29;20067;-86
2023/09/27 10:37:00;;;;;;;36.60;33.75;;;28.60;99.90;;;;;;4920146;29;20036;-84
2023/09/27 10:39:28;;;;;;;37.03;34.15;;;28.70;99.90;;;;;;4911747;29;20044;-85
2023/09/27 10:41:54;;;;;;;37.17;33.95;;;28.80;99.90;;;;;;4908045;29;20056;-86
2023/09/27 10:44:29;;;;;;;36.35;33.30;;;28.70;99.90;;;;;;4910233;29;20554;-86
2023/09/27 10:47:03;;;;;;;36.47;33.72;;;28.80;99.90;;;;;;4914666;29;20028;-85
2023/09/27 10:49:38;;;;;;;36.83;33.88;;;28.80;99.90;;;;;;4914729;29;20477;-85
2023/09/27 10:52:17;;;;;;;36.35;33.45;;;28.70;99.90;;;;;;4914157;29;20072;-86
2023/09/27 10:54:48;;;;;;;37.15;34.20;;;28.70;99.90;;;;;;4899016;29;20040;-85
2023/09/27 10:57:24;;;;;;;37.03;34.03;;;28.70;99.90;;;;;;4914747;29;20079;-85
2023/09/27 10:59:58;;;;;;;36.55;33.75;;;28.60;99.90;;;;;;4914917;29;20025;-86
2023/09/27 11:02:31;;;;;;;35.88;33.28;;;28.50;99.90;;;;;;4917774;29;20044;-86
2023/09/27 11:04:57;;;;;;;35.65;32.85;;;28.70;99.90;;;;;;4883304;29;20079;-86
2023/09/27 11:07:45;;;;;;;36.20;33.15;;;28.70;99.90;;;;;;4890965;29;20033;-86
2023/09/27 11:10:18;;;;;;;36.33;33.20;;;28.50;99.90;;;;;;4901730;29;20051;-86
2023/09/27 11:12:51;;;;;;;36.17;33.22;;;28.60;99.90;;;;;;4901628;29;20091;-86
2023/09/27 11:15:24;;;;;;;35.60;32.58;;;28.70;99.90;;;;;;4901790;29;20498;-86
2023/09/27 11:17:55;;;;;;;34.85;32.25;;;28.50;99.90;;;;;;4901886;29;20051;-87
2023/09/27 11:20:23;;;;;;;34.88;32.20;;;28.40;99.90;;;;;;4901595;29;20032;-86
2023/09/27 11:22:59;;;;;;;35.78;32.85;;;28.50;99.90;;;;;;4901789;29;20024;-87
2023/09/27 11:25:31;;;;;;;35.30;32.55;;;28.70;99.90;;;;;;4901575;29;20036;-85
2023/09/27 11:27:58;;;;;;;35.97;33.20;;;28.80;99.90;;;;;;4917385;29;20039;-86
2023/09/27 11:30:33;;;;;;;36.90;33.95;;;28.70;99.90;;;;;;4901599;29;20024;-85
2023/09/27 11:33:07;;;;;;;36.85;34.15;;;28.90;99.90;;;;;;4901595;29;20032;-90
2023/09/27 11:35:35;;;;;;;36.67;33.95;;;28.90;99.90;;;;;;4901539;29;20040;-86
2023/09/27 11:38:10;;;;;;;37.17;34.17;;;28.80;99.90;;;;;;4916930;29;20408;-83
2023/09/27 11:40:38;;;;;;;36.35;33.55;;;28.90;99.90;;;;;;4901443;29;20028;-86
2023/09/27 11:43:05;;;;;;;37.65;34.25;;;28.90;99.90;;;;;;4901967;29;20041;-86
2023/09/27 11:45:49;;;;;;;36.60;33.80;;;28.90;99.90;;;;;;4901230;29;20051;-87
2023/09/27 11:48:16;;;;;;;37.05;33.53;;;28.70;99.90;;;;;;4901684;29;20409;-88
2023/09/27 11:50:43;;;;;;;36.67;33.80;;;28.60;99.90;;;;;;4901605;29;20131;-88
2023/09/27 11:53:10;;;;;;;37.67;34.45;;;28.70;99.90;;;;;;4901307;29;20087;-92
2023/09/27 11:55:39;;;;;;;37.55;34.45;;;28.80;99.90;;;;;;4900790;29;20511;-90
2023/09/27 11:58:08;;;;;;;36.97;34.00;;;28.70;99.90;;;;;;4901741;29;20126;-87
2023/09/27 12:00:34;;;;;;;36.75;33.97;;;28.70;99.90;;;;;;4901076;29;20478;-87
2023/09/27 12:03:04;;;;;;;37.08;33.92;;;28.70;99.90;;;;;;4901244;29;20560;-89
2023/09/27 12:05:41;;;;;;;35.47;32.47;;;28.70;99.90;;;;;;4916856;29;20035;-87
2023/09/27 12:08:26;;;;;;;33.58;30.85;;;28.60;99.90;;;;;;4917555;29;20028;-88
2023/09/27 12:10:54;;;;;;;34.33;30.95;;;28.30;99.90;;;;;;4902446;29;20024;-89
2023/09/27 12:13:20;;;;;;;36.13;31.13;;;28.40;99.90;;;;;;4917007;29;20028;-87
2023/09/27 12:15:47;;;;;;;33.85;29.13;;;28.30;99.90;;;;;;4901153;29;20025;-86
2023/09/27 12:18:13;;;;;;;32.13;29.35;;;28.20;99.90;;;;;;4900961;29;20122;-86
2023/09/27 12:20:40;;;;;;;32.03;29.13;;;28.20;99.90;;;;;;4901125;29;20454;-89
2023/09/27 12:23:07;;;;;;;32.97;29.73;;;28.20;99.90;;;;;;4900760;29;20036;-88
2023/09/27 12:25:36;;;;;;;33.33;29.70;;;27.90;99.90;;;;;;4916854;29;20047;-88
2023/09/27 12:28:03;;;;;;;31.58;28.48;;;28.00;99.90;;;;;;4916612;29;20040;-88
2023/09/27 12:30:30;;;;;;;31.02;28.63;;;27.80;99.90;;;;;;4900805;29;20024;-86
2023/09/27 12:32:57;;;;;;;30.60;27.80;;;27.80;99.90;;;;;;4900750;29;20040;-85
2023/09/27 12:35:34;;;;;;;32.90;29.50;;;27.70;99.90;;;;;;4916780;29;20026;-88
2023/09/27 12:38:22;;;;;;;31.67;28.48;;;27.60;99.90;;;;;;4916711;29;20131;-87
2023/09/27 12:41:13;;;;;;;31.48;29.10;;;27.40;99.90;;;;;;4917162;29;20060;-87
2023/09/27 12:43:48;;;;;;;32.63;29.83;;;27.50;99.90;;;;;;4900641;29;20507;-85
2023/09/27 12:46:30;;;;;;;32.20;29.23;;;27.60;99.90;;;;;;4901236;29;20039;-84